Time;durP1;ratioP1;P1;durP2;ratioP2;P2;SDS_P1;SDS_P2;PMS_P1;PMS_P2;Temp;Humidity;BMP_temperature;BMP_pressure;BME280_temperature;BME280_humidity;BME280_pressure;Samples;Min_cycle;Max_cycle;Signal;HPM_P1;HPM_P2
2022/05/30 00:01:08;;;;;;;0.45;0.32;;;;;;;;;;5016996;28;20038;-74
2022/05/30 00:03:33;;;;;;;0.10;0.10;;;;;;;;;;5016833;28;20030;-74
2022/05/30 00:05:58;;;;;;;0.45;0.17;;;;;;;;;;5014730;28;20036;-75
2022/05/30 00:08:24;;;;;;;0.30;0.13;;;;;;;;;;5014915;28;20029;-74
2022/05/30 00:10:49;;;;;;;0.00;0.00;;;;;;;;;;5016630;28;20036;-76
2022/05/30 00:13:14;;;;;;;0.28;0.28;;;;;;;;;;5016312;28;20109;-75
2022/05/30 00:15:40;;;;;;;4.55;0.35;;;;;;;;;;5014871;28;20435;-76
2022/05/30 00:18:09;;;;;;;0.20;0.20;;;;;;;;;;5016105;28;20034;-75
2022/05/30 00:20:36;;;;;;;0.17;0.17;;;;;;;;;;5016053;28;20036;-75
2022/05/30 00:23:04;;;;;;;0.28;0.28;;;;;;;;;;5016360;28;20446;-76
2022/05/30 00:25:30;;;;;;;2.58;1.13;;;;;;;;;;5015592;28;20041;-76
2022/05/30 00:27:55;;;;;;;0.00;0.00;;;;;;;;;;4998672;28;20083;-75
2022/05/30 00:30:23;;;;;;;0.15;0.15;;;;;;;;;;4998889;28;20021;-76
2022/05/30 00:32:51;;;;;;;0.00;0.00;;;;;;;;;;5016134;28;20030;-87
2022/05/30 00:35:16;;;;;;;0.00;0.00;;;;;;;;;;4999400;28;20446;-85
2022/05/30 00:37:44;;;;;;;0.30;0.28;;;;;;;;;;4998423;28;20045;-86
2022/05/30 00:40:12;;;;;;;0.52;0.52;;;;;;;;;;4998626;28;20037;-85
2022/05/30 00:42:38;;;;;;;0.52;0.43;;;;;;;;;;5016049;28;20054;-86
2022/05/30 00:45:04;;;;;;;0.10;0.10;;;;;;;;;;4998661;28;20451;-87
2022/05/30 00:47:32;;;;;;;0.10;0.10;;;;;;;;;;4998049;28;20017;-87
2022/05/30 00:50:00;;;;;;;0.17;0.17;;;;;;;;;;5014545;28;20049;-88
2022/05/30 00:52:32;;;;;;;0.70;0.55;;;;;;;;;;5015223;28;20030;-87
2022/05/30 00:55:11;;;;;;;;;;;;;;;;;;5015764;28;20030;-88
2022/05/30 00:57:37;;;;;;;0.00;0.00;;;;;;;;;;4997998;28;19968;-87
2022/05/30 01:00:12;;;;;;;0.17;0.17;;;;;;;;;;5015017;28;20091;-87
2022/05/30 01:02:39;;;;;;;0.60;0.20;;;;;;;;;;5008142;28;20025;-87
2022/05/30 01:07:53;;;;;;;1.95;1.20;;;;;;;;;;5011473;28;20040;-88
2022/05/30 01:10:20;;;;;;;23.20;0.32;;;;;;;;;;4998943;28;20117;-87
2022/05/30 01:12:52;;;;;;;6.50;0.38;;;;;;;;;;4997972;28;20113;-87
2022/05/30 01:15:26;;;;;;;0.08;0.08;;;;;;;;;;5014966;28;20053;-86
2022/05/30 01:18:03;;;;;;;0.10;0.00;;;;;;;;;;5014072;28;20026;-87
2022/05/30 01:20:47;;;;;;;0.80;0.47;;;;;;;;;;4997929;28;20463;-86
2022/05/30 01:23:24;;;;;;;0.10;0.10;;;;;;;;;;5014292;28;20038;-86
2022/05/30 01:26:06;;;;;;;0.20;0.15;;;;;;;;;;5014070;28;20073;-88
2022/05/30 01:28:46;;;;;;;0.10;0.10;;;;;;;;;;4998366;28;20038;-88
2022/05/30 01:31:13;;;;;;;4.45;1.15;;;;;;;;;;5014774;28;20343;-85
2022/05/30 01:33:41;;;;;;;0.00;0.00;;;;;;;;;;4997711;28;20037;-87
2022/05/30 01:36:10;;;;;;;1.10;0.45;;;;;;;;;;5014588;28;20064;-87
2022/05/30 01:38:38;;;;;;;0.57;0.10;;;;;;;;;;5016222;28;20490;-88
2022/05/30 01:41:06;;;;;;;0.82;0.82;;;;;;;;;;5018145;28;20113;-87
2022/05/30 01:43:33;;;;;;;0.15;0.15;;;;;;;;;;5015220;28;20096;-87
2022/05/30 01:46:07;;;;;;;0.00;0.00;;;;;;;;;;4984484;28;20025;-85
2022/05/30 01:48:33;;;;;;;0.10;0.10;;;;;;;;;;5014273;28;20426;-88
2022/05/30 01:50:59;;;;;;;4.10;0.77;;;;;;;;;;4994658;28;20057;-88
2022/05/30 01:53:28;;;;;;;0.10;0.10;;;;;;;;;;5015948;28;20057;-87
2022/05/30 01:55:58;;;;;;;0.05;0.05;;;;;;;;;;5000933;28;20021;-87
2022/05/30 01:58:23;;;;;;;0.10;0.10;;;;;;;;;;5015218;28;20021;-82
2022/05/30 02:00:49;;;;;;;6.13;0.43;;;;;;;;;;5006029;28;20026;-83
2022/05/30 02:03:20;;;;;;;0.10;0.10;;;;;;;;;;5005433;28;20426;-85
2022/05/30 02:05:45;;;;;;;0.05;0.05;;;;;;;;;;5013172;28;20040;-87
2022/05/30 02:08:11;;;;;;;0.00;0.00;;;;;;;;;;4998288;28;20351;-88
2022/05/30 02:10:36;;;;;;;3.78;0.90;;;;;;;;;;4997732;28;20042;-86
2022/05/30 02:13:05;;;;;;;0.10;0.10;;;;;;;;;;5013419;28;20095;-86
2022/05/30 02:17:00;;;;;;;0.00;0.00;;;;;;;;;;4997997;28;20450;-86
2022/05/30 02:18:18;;;;;;;0.63;0.45;;;;;;;;;;5014267;28;20045;-85
2022/05/30 02:20:46;;;;;;;0.10;0.10;;;;;;;;;;5013503;28;20030;-87
2022/05/30 02:23:16;;;;;;;0.55;0.55;;;;;;;;;;5030223;28;20030;-88
2022/05/30 02:25:45;;;;;;;0.00;0.00;;;;;;;;;;5015409;28;20018;-88
2022/05/30 02:28:10;;;;;;;0.00;0.00;;;;;;;;;;5013894;28;20021;-88
2022/05/30 02:30:36;;;;;;;1.42;0.63;;;;;;;;;;4995421;28;20043;-88
2022/05/30 02:38:32;;;;;;;0.00;0.00;;;;;;;;;;5013692;28;20176;-88
2022/05/30 02:40:57;;;;;;;1.05;0.35;;;;;;;;;;4997747;28;20045;-86
2022/05/30 02:43:25;;;;;;;11.40;1.75;;;;;;;;;;5012623;28;20442;-86
2022/05/30 02:45:52;;;;;;;0.00;0.00;;;;;;;;;;5012563;28;20037;-87
2022/05/30 02:48:18;;;;;;;5.93;0.45;;;;;;;;;;5027033;28;20030;-87
2022/05/30 02:50:48;;;;;;;0.00;0.00;;;;;;;;;;5028370;28;20030;-84
2022/05/30 02:53:18;;;;;;;0.10;0.10;;;;;;;;;;5012543;28;20026;-84
2022/05/30 02:55:48;;;;;;;0.47;0.47;;;;;;;;;;5013414;28;20042;-84
2022/05/30 02:58:16;;;;;;;0.00;0.00;;;;;;;;;;5013883;28;20414;-87
2022/05/30 03:00:41;;;;;;;0.20;0.20;;;;;;;;;;5014524;28;20026;-85
2022/05/30 03:03:09;;;;;;;0.10;0.10;;;;;;;;;;4996447;28;20052;-86
2022/05/30 03:05:34;;;;;;;4.03;0.75;;;;;;;;;;5012821;28;20069;-86
2022/05/30 03:08:03;;;;;;;0.00;0.00;;;;;;;;;;5013499;28;20049;-85
2022/05/30 03:10:29;;;;;;;0.40;0.40;;;;;;;;;;4996989;28;20571;-86
2022/05/30 03:12:56;;;;;;;0.00;0.00;;;;;;;;;;5013319;28;20033;-86
2022/05/30 03:15:24;;;;;;;2.08;0.45;;;;;;;;;;5013179;28;20431;-86
2022/05/30 03:17:52;;;;;;;0.00;0.00;;;;;;;;;;5013603;28;20056;-85
2022/05/30 03:20:18;;;;;;;0.20;0.20;;;;;;;;;;4997160;28;20471;-86
2022/05/30 03:22:46;;;;;;;0.13;0.00;;;;;;;;;;4997269;28;20362;-84
2022/05/30 03:25:11;;;;;;;0.25;0.15;;;;;;;;;;5012766;28;20029;-86
2022/05/30 03:27:37;;;;;;;0.35;0.30;;;;;;;;;;4997253;28;20025;-84
2022/05/30 03:30:03;;;;;;;0.10;0.10;;;;;;;;;;4997086;28;20485;-85
2022/05/30 03:32:29;;;;;;;0.00;0.00;;;;;;;;;;5013297;28;20347;-84
2022/05/30 03:34:54;;;;;;;0.00;0.00;;;;;;;;;;4995876;28;20033;-84
2022/05/30 03:37:22;;;;;;;0.80;0.57;;;;;;;;;;5012802;28;20589;-84
2022/05/30 03:39:49;;;;;;;0.08;0.08;;;;;;;;;;4996491;28;20030;-85
2022/05/30 03:42:17;;;;;;;0.13;0.13;;;;;;;;;;4996558;28;20030;-85
2022/05/30 03:44:45;;;;;;;0.00;0.00;;;;;;;;;;5010485;28;20034;-85
2022/05/30 03:47:11;;;;;;;0.05;0.00;;;;;;;;;;5012105;28;20053;-84
2022/05/30 03:49:39;;;;;;;0.00;0.00;;;;;;;;;;4996277;28;20068;-84
2022/05/30 03:52:07;;;;;;;0.30;0.30;;;;;;;;;;5013117;28;20084;-85
2022/05/30 03:54:34;;;;;;;0.28;0.28;;;;;;;;;;4996022;28;20026;-85
2022/05/30 03:57:03;;;;;;;0.63;0.63;;;;;;;;;;4990388;28;20026;-85
2022/05/30 03:59:28;;;;;;;0.32;0.32;;;;;;;;;;5013092;28;20120;-86
2022/05/30 04:01:56;;;;;;;0.08;0.08;;;;;;;;;;5008876;28;20113;-83
2022/05/30 04:04:23;;;;;;;0.00;0.00;;;;;;;;;;5010426;28;20034;-84
2022/05/30 04:06:49;;;;;;;6.22;1.05;;;;;;;;;;4996112;28;20037;-85
2022/05/30 04:09:14;;;;;;;0.00;0.00;;;;;;;;;;5013707;28;20022;-84
2022/05/30 04:11:44;;;;;;;3.25;0.28;;;;;;;;;;5012629;28;20091;-85
2022/05/30 04:14:10;;;;;;;6.93;0.70;;;;;;;;;;5011806;28;20030;-85
2022/05/30 04:16:40;;;;;;;2.28;0.93;;;;;;;;;;5012493;28;20048;-88
2022/05/30 04:19:05;;;;;;;0.52;0.20;;;;;;;;;;4996448;28;20497;-86
2022/05/30 04:21:30;;;;;;;0.20;0.20;;;;;;;;;;5013161;28;20030;-85
2022/05/30 04:23:58;;;;;;;0.00;0.00;;;;;;;;;;5011609;28;20029;-86
2022/05/30 04:26:28;;;;;;;0.10;0.10;;;;;;;;;;5013707;28;20162;-86
2022/05/30 04:28:54;;;;;;;0.30;0.00;;;;;;;;;;5015964;28;20025;-82
2022/05/30 04:31:19;;;;;;;0.00;0.00;;;;;;;;;;5016679;28;20033;-85
2022/05/30 04:33:45;;;;;;;1.45;1.10;;;;;;;;;;5014440;28;20030;-83
2022/05/30 04:36:12;;;;;;;0.05;0.05;;;;;;;;;;5013988;28;20041;-86
2022/05/30 04:38:40;;;;;;;1.15;0.60;;;;;;;;;;4999216;28;20462;-85
2022/05/30 04:41:08;;;;;;;0.00;0.00;;;;;;;;;;5015891;28;20033;-87
2022/05/30 04:43:33;;;;;;;0.55;0.55;;;;;;;;;;5031012;28;20435;-87
2022/05/30 04:46:08;;;;;;;0.70;0.52;;;;;;;;;;4995587;28;20101;-84
2022/05/30 04:48:33;;;;;;;0.00;0.00;;;;;;;;;;5015709;28;20029;-87
2022/05/30 04:50:59;;;;;;;0.40;0.40;;;;;;;;;;5014171;28;20075;-88
2022/05/30 04:53:26;;;;;;;0.38;0.38;;;;;;;;;;4998314;28;20038;-87
2022/05/30 04:55:52;;;;;;;0.00;0.00;;;;;;;;;;5014617;28;20040;-87
2022/05/30 04:58:17;;;;;;;0.00;0.00;;;;;;;;;;4999254;28;20120;-85
2022/05/30 05:00:47;;;;;;;0.85;0.10;;;;;;;;;;4999380;28;20396;-84
2022/05/30 05:03:12;;;;;;;0.20;0.17;;;;;;;;;;5012383;28;20026;-86
2022/05/30 05:05:40;;;;;;;0.30;0.20;;;;;;;;;;5014392;28;20332;-87
2022/05/30 05:08:32;;;;;;;0.28;0.20;;;;;;;;;;4999078;28;20057;-85
2022/05/30 05:11:06;;;;;;;0.00;0.00;;;;;;;;;;5015165;28;20080;-84
2022/05/30 05:13:36;;;;;;;1.15;1.00;;;;;;;;;;5031202;28;20092;-82
2022/05/30 05:16:01;;;;;;;0.03;0.03;;;;;;;;;;5012178;28;20364;-87
2022/05/30 05:18:27;;;;;;;5.47;0.73;;;;;;;;;;4996229;28;20068;-87
2022/05/30 05:20:52;;;;;;;0.10;0.10;;;;;;;;;;5015202;28;20113;-87
2022/05/30 05:23:20;;;;;;;1.65;0.80;;;;;;;;;;5016206;28;20115;-87
2022/05/30 05:25:45;;;;;;;0.38;0.30;;;;;;;;;;4999211;28;20030;-87
2022/05/30 05:28:10;;;;;;;0.10;0.10;;;;;;;;;;4996054;28;20355;-80
2022/05/30 05:30:39;;;;;;;1.20;0.43;;;;;;;;;;5030712;28;20103;-86
2022/05/30 05:33:04;;;;;;;0.10;0.10;;;;;;;;;;4998359;28;20030;-85
2022/05/30 05:35:32;;;;;;;0.00;0.00;;;;;;;;;;4997654;28;20041;-86
2022/05/30 05:37:58;;;;;;;0.10;0.10;;;;;;;;;;4998988;28;20030;-85
2022/05/30 05:40:33;;;;;;;0.10;0.10;;;;;;;;;;4998721;28;20029;-84
2022/05/30 05:43:00;;;;;;;0.52;0.52;;;;;;;;;;4984754;28;20037;-86
2022/05/30 05:45:26;;;;;;;0.30;0.30;;;;;;;;;;4999162;28;20128;-87
2022/05/30 05:47:54;;;;;;;0.75;0.43;;;;;;;;;;4996305;28;20113;-84
2022/05/30 05:50:21;;;;;;;0.40;0.40;;;;;;;;;;4997681;28;20435;-86
2022/05/30 05:52:46;;;;;;;0.80;0.47;;;;;;;;;;5014686;28;20030;-84
2022/05/30 05:55:12;;;;;;;0.00;0.00;;;;;;;;;;4998378;28;20466;-85
2022/05/30 05:57:39;;;;;;;0.30;0.22;;;;;;;;;;4997031;28;20053;-84
2022/05/30 06:00:10;;;;;;;0.22;0.22;;;;;;;;;;4998138;28;20029;-86
2022/05/30 06:02:38;;;;;;;2.92;1.25;;;;;;;;;;4997453;28;20034;-85
2022/05/30 06:05:04;;;;;;;0.75;0.65;;;;;;;;;;4997721;28;20127;-83
2022/05/30 06:07:32;;;;;;;0.10;0.10;;;;;;;;;;4997061;28;20017;-83
2022/05/30 06:09:59;;;;;;;0.00;0.00;;;;;;;;;;5013742;28;20501;-85
2022/05/30 06:12:25;;;;;;;0.00;0.00;;;;;;;;;;5014764;28;20088;-84
2022/05/30 06:14:50;;;;;;;1.10;0.40;;;;;;;;;;4997801;28;20037;-84
2022/05/30 06:17:18;;;;;;;0.22;0.22;;;;;;;;;;4996628;28;20339;-86
2022/05/30 06:19:45;;;;;;;0.47;0.47;;;;;;;;;;5014171;28;20053;-83
2022/05/30 06:22:11;;;;;;;0.05;0.05;;;;;;;;;;4997704;28;20034;-84
2022/05/30 06:24:39;;;;;;;0.00;0.00;;;;;;;;;;5014615;28;20034;-83
2022/05/30 06:27:10;;;;;;;0.20;0.20;;;;;;;;;;5013454;28;20022;-85
2022/05/30 06:29:38;;;;;;;6.00;0.32;;;;;;;;;;4997148;28;20026;-85
2022/05/30 06:32:04;;;;;;;0.65;0.45;;;;;;;;;;4997404;28;20032;-84
2022/05/30 06:34:30;;;;;;;2.05;0.52;;;;;;;;;;4996734;28;20029;-84
2022/05/30 06:36:58;;;;;;;0.00;0.00;;;;;;;;;;4996830;28;20034;-84
2022/05/30 06:39:27;;;;;;;0.10;0.10;;;;;;;;;;5013854;28;20034;-85
2022/05/30 06:41:55;;;;;;;0.00;0.00;;;;;;;;;;4997974;28;20180;-81
2022/05/30 06:44:25;;;;;;;0.05;0.05;;;;;;;;;;4997491;28;20025;-86
2022/05/30 06:46:51;;;;;;;0.00;0.00;;;;;;;;;;5012350;28;20526;-86
2022/05/30 06:49:21;;;;;;;0.40;0.40;;;;;;;;;;4996423;28;20044;-84
2022/05/30 06:51:51;;;;;;;0.10;0.10;;;;;;;;;;4991291;28;20037;-84
2022/05/30 06:54:16;;;;;;;0.45;0.10;;;;;;;;;;5001413;28;20108;-81
2022/05/30 06:59:28;;;;;;;0.55;0.22;;;;;;;;;;5026801;28;20112;-84
2022/05/30 07:02:01;;;;;;;0.43;0.30;;;;;;;;;;5011058;28;20443;-83
2022/05/30 07:04:31;;;;;;;0.22;0.22;;;;;;;;;;5013351;28;20493;-84
2022/05/30 07:06:59;;;;;;;0.63;0.28;;;;;;;;;;5030261;28;20026;-82
2022/05/30 07:09:24;;;;;;;0.10;0.10;;;;;;;;;;4994851;28;20415;-84
2022/05/30 07:12:01;;;;;;;1.50;1.17;;;;;;;;;;4993370;28;20030;-83
2022/05/30 07:14:27;;;;;;;3.90;0.20;;;;;;;;;;5026295;28;20136;-87
2022/05/30 07:16:55;;;;;;;0.00;0.00;;;;;;;;;;5003346;28;20503;-85
2022/05/30 07:19:45;;;;;;;0.17;0.15;;;;;;;;;;5007070;28;20450;-84
2022/05/30 07:22:12;;;;;;;0.32;0.30;;;;;;;;;;5012033;28;20451;-86
2022/05/30 07:24:38;;;;;;;0.00;0.00;;;;;;;;;;4997802;28;20109;-87
2022/05/30 07:27:06;;;;;;;1.85;0.45;;;;;;;;;;4996483;28;20489;-87
2022/05/30 07:29:34;;;;;;;0.10;0.10;;;;;;;;;;4998147;28;20455;-88
2022/05/30 07:32:03;;;;;;;0.13;0.13;;;;;;;;;;4996855;28;20037;-87
2022/05/30 07:34:31;;;;;;;0.30;0.30;;;;;;;;;;4997722;28;20018;-87
2022/05/30 07:37:03;;;;;;;2.75;0.77;;;;;;;;;;4997695;28;20030;-87
2022/05/30 07:39:31;;;;;;;0.10;0.10;;;;;;;;;;4997202;28;20022;-87
2022/05/30 07:41:58;;;;;;;0.38;0.38;;;;;;;;;;5013062;28;20374;-87
2022/05/30 07:44:26;;;;;;;0.50;0.50;;;;;;;;;;4998433;28;20022;-87
2022/05/30 07:46:51;;;;;;;0.10;0.10;;;;;;;;;;4997521;28;20025;-86
2022/05/30 07:49:19;;;;;;;0.45;0.45;;;;;;;;;;4997141;28;20018;-88
2022/05/30 07:51:47;;;;;;;1.13;0.52;;;;;;;;;;4996545;28;20018;-87
2022/05/30 07:54:17;;;;;;;0.10;0.10;;;;;;;;;;5013868;28;20030;-87
2022/05/30 07:56:42;;;;;;;0.10;0.10;;;;;;;;;;5013546;28;20037;-87
2022/05/30 07:59:10;;;;;;;1.02;0.55;;;;;;;;;;4997244;28;20398;-86
2022/05/30 08:01:38;;;;;;;0.52;0.52;;;;;;;;;;5013501;28;20026;-87
2022/05/30 08:04:03;;;;;;;1.65;0.88;;;;;;;;;;5000879;28;20112;-87
2022/05/30 08:06:30;;;;;;;0.60;0.28;;;;;;;;;;5001114;28;20053;-86
2022/05/30 08:08:58;;;;;;;0.32;0.32;;;;;;;;;;5001323;28;20028;-85
2022/05/30 08:11:26;;;;;;;1.00;0.35;;;;;;;;;;5018011;28;20351;-86
2022/05/30 08:13:55;;;;;;;0.10;0.10;;;;;;;;;;5001838;28;20608;-85
2022/05/30 08:16:25;;;;;;;0.20;0.20;;;;;;;;;;5017322;28;20080;-86
2022/05/30 08:18:50;;;;;;;0.43;0.40;;;;;;;;;;5000896;28;20026;-85
2022/05/30 08:21:16;;;;;;;0.20;0.20;;;;;;;;;;4999500;28;20378;-87
2022/05/30 08:23:44;;;;;;;0.22;0.22;;;;;;;;;;5000684;28;20321;-87
2022/05/30 08:26:15;;;;;;;0.88;0.63;;;;;;;;;;5000852;28;20024;-87
2022/05/30 08:28:43;;;;;;;0.28;0.28;;;;;;;;;;5016750;28;20111;-88
2022/05/30 08:31:11;;;;;;;1.60;0.73;;;;;;;;;;4999925;28;20052;-89
2022/05/30 08:33:37;;;;;;;0.43;0.30;;;;;;;;;;5028449;28;20026;-87
2022/05/30 08:36:12;;;;;;;0.80;0.57;;;;;;;;;;5029957;28;20022;-87
2022/05/30 08:38:39;;;;;;;0.70;0.20;;;;;;;;;;5016388;28;20022;-87
2022/05/30 08:43:53;;;;;;;0.30;0.28;;;;;;;;;;5012252;28;20048;-87
2022/05/30 08:46:40;;;;;;;0.43;0.38;;;;;;;;;;4999426;28;20022;-88
2022/05/30 08:49:23;;;;;;;0.73;0.70;;;;;;;;;;4998658;28;20022;-87
2022/05/30 08:52:07;;;;;;;0.52;0.35;;;;;;;;;;4999830;28;20055;-86
2022/05/30 08:54:58;;;;;;;3.00;0.70;;;;;;;;;;5017365;28;20458;-87
2022/05/30 08:57:44;;;;;;;0.30;0.30;;;;;;;;;;5000197;28;20033;-86
2022/05/30 09:00:19;;;;;;;0.13;0.13;;;;;;;;;;5016188;28;20075;-87
2022/05/30 09:02:54;;;;;;;0.38;0.32;;;;;;;;;;5016364;28;20040;-87
2022/05/30 09:05:24;;;;;;;0.32;0.32;;;;;;;;;;4999520;28;20036;-87
2022/05/30 09:07:53;;;;;;;0.40;0.40;;;;;;;;;;4999481;28;20064;-87
2022/05/30 09:10:31;;;;;;;0.00;0.00;;;;;;;;;;5016344;28;20041;-86
2022/05/30 09:13:21;;;;;;;0.82;0.63;;;;;;;;;;4999823;28;20030;-87
2022/05/30 09:16:08;;;;;;;3.40;0.38;;;;;;;;;;4996063;28;20026;-87
2022/05/30 09:18:44;;;;;;;0.00;0.00;;;;;;;;;;5015161;28;20029;-87
2022/05/30 09:21:10;;;;;;;0.10;0.10;;;;;;;;;;5019524;28;20076;-87
2022/05/30 09:23:35;;;;;;;1.15;0.70;;;;;;;;;;4996874;28;20395;-88
2022/05/30 09:26:01;;;;;;;0.20;0.20;;;;;;;;;;5015353;28;20091;-87
2022/05/30 09:28:42;;;;;;;0.38;0.38;;;;;;;;;;4999558;28;20057;-87
2022/05/30 09:31:21;;;;;;;0.40;0.32;;;;;;;;;;5009814;28;20038;-86
2022/05/30 09:33:53;;;;;;;0.00;0.00;;;;;;;;;;5015815;28;20455;-86
2022/05/30 09:36:31;;;;;;;1.98;0.45;;;;;;;;;;4999221;28;20053;-86
2022/05/30 09:39:01;;;;;;;0.30;0.30;;;;;;;;;;5014744;28;20029;-87
2022/05/30 09:41:48;;;;;;;0.22;0.22;;;;;;;;;;5031975;28;20030;-87
2022/05/30 09:44:17;;;;;;;0.10;0.10;;;;;;;;;;5014575;28;20419;-86
2022/05/30 09:46:50;;;;;;;0.10;0.10;;;;;;;;;;5015493;28;20029;-87
2022/05/30 09:49:23;;;;;;;0.20;0.20;;;;;;;;;;4998564;28;20403;-85
2022/05/30 09:51:58;;;;;;;0.88;0.52;;;;;;;;;;5015170;28;20029;-86
2022/05/30 09:54:24;;;;;;;0.63;0.40;;;;;;;;;;4999562;28;20022;-86
2022/05/30 09:56:53;;;;;;;0.13;0.13;;;;;;;;;;5015087;28;20033;-87
2022/05/30 09:59:25;;;;;;;0.93;0.38;;;;;;;;;;4998328;28;20021;-88
2022/05/30 10:01:51;;;;;;;0.20;0.20;;;;;;;;;;5015049;28;20018;-86
2022/05/30 10:04:18;;;;;;;0.30;0.30;;;;;;;;;;4998608;28;20022;-86
2022/05/30 10:07:04;;;;;;;0.63;0.63;;;;;;;;;;4998954;28;20120;-86
2022/05/30 10:09:32;;;;;;;1.35;0.10;;;;;;;;;;4998324;28;20108;-86
2022/05/30 10:12:02;;;;;;;2.13;0.47;;;;;;;;;;5008536;28;20455;-86
2022/05/30 10:14:39;;;;;;;0.20;0.20;;;;;;;;;;5014321;28;20030;-85
2022/05/30 10:17:17;;;;;;;0.17;0.17;;;;;;;;;;4999624;28;20026;-85
2022/05/30 10:19:51;;;;;;;0.20;0.20;;;;;;;;;;4997662;28;20034;-87
2022/05/30 10:28:46;;;;;;;0.10;0.10;;;;;;;;;;5009885;28;20547;-88
2022/05/30 10:31:52;;;;;;;0.10;0.10;;;;;;;;;;4988961;28;20057;-88
2022/05/30 10:34:53;;;;;;;0.43;0.28;;;;;;;;;;5009706;28;20033;-87
2022/05/30 10:37:45;;;;;;;0.43;0.22;;;;;;;;;;5008463;28;20037;-85
2022/05/30 10:40:49;;;;;;;0.22;0.22;;;;;;;;;;4994752;28;20049;-85
2022/05/30 10:43:34;;;;;;;1.45;0.25;;;;;;;;;;5011463;28;20026;-87
2022/05/30 10:46:02;;;;;;;0.43;0.35;;;;;;;;;;5012902;28;20470;-90
2022/05/30 10:48:31;;;;;;;0.20;0.20;;;;;;;;;;5010919;28;20014;-84
2022/05/30 10:51:22;;;;;;;0.40;0.20;;;;;;;;;;4988512;28;20494;-81
2022/05/30 10:54:09;;;;;;;0.45;0.30;;;;;;;;;;4994038;28;20088;-83
2022/05/30 10:56:42;;;;;;;0.10;0.10;;;;;;;;;;5008211;28;20071;-83
2022/05/30 10:59:31;;;;;;;0.32;0.22;;;;;;;;;;4989208;28;20351;-84
2022/05/30 11:02:26;;;;;;;1.75;0.63;;;;;;;;;;5001526;28;20053;-82
2022/05/30 11:04:58;;;;;;;0.10;0.10;;;;;;;;;;5008597;28;20053;-82
2022/05/30 11:07:38;;;;;;;0.10;0.10;;;;;;;;;;5028456;28;20446;-83
2022/05/30 11:10:23;;;;;;;0.13;0.13;;;;;;;;;;4996931;28;20339;-83
2022/05/30 11:13:08;;;;;;;0.00;0.00;;;;;;;;;;4988294;28;20033;-84
2022/05/30 11:15:40;;;;;;;1.00;0.50;;;;;;;;;;5012785;28;20084;-85
2022/05/30 11:18:13;;;;;;;0.10;0.10;;;;;;;;;;4996204;28;20022;-83
2022/05/30 11:21:03;;;;;;;0.32;0.30;;;;;;;;;;5009639;28;20033;-83
2022/05/30 11:23:30;;;;;;;0.75;0.40;;;;;;;;;;5013432;28;20435;-84
2022/05/30 11:26:09;;;;;;;0.95;0.60;;;;;;;;;;4996354;28;20033;-84
2022/05/30 11:29:07;;;;;;;0.20;0.20;;;;;;;;;;4995322;28;20037;-84
2022/05/30 11:31:46;;;;;;;0.60;0.40;;;;;;;;;;5008664;28;20029;-83
2022/05/30 11:34:33;;;;;;;0.05;0.05;;;;;;;;;;5012480;28;20022;-84
2022/05/30 11:37:04;;;;;;;0.85;0.75;;;;;;;;;;5010948;28;20042;-83
2022/05/30 11:40:10;;;;;;;0.45;0.45;;;;;;;;;;5012688;28;20033;-85
2022/05/30 11:43:14;;;;;;;0.00;0.00;;;;;;;;;;5008020;28;20462;-86
2022/05/30 11:46:33;;;;;;;0.20;0.20;;;;;;;;;;5012704;28;20077;-83
2022/05/30 11:49:07;;;;;;;0.10;0.10;;;;;;;;;;5016269;28;20461;-81
2022/05/30 11:51:36;;;;;;;2.10;0.57;;;;;;;;;;4996718;28;20092;-80
2022/05/30 11:54:22;;;;;;;0.15;0.15;;;;;;;;;;5015447;28;20034;-82
2022/05/30 11:57:25;;;;;;;0.32;0.28;;;;;;;;;;4996483;28;20034;-82
2022/05/30 12:03:32;;;;;;;0.00;0.00;;;;;;;;;;5015841;28;20541;-86
2022/05/30 12:06:22;;;;;;;0.00;0.00;;;;;;;;;;5007896;28;20034;-81
2022/05/30 12:09:12;;;;;;;3.40;1.10;;;;;;;;;;4999790;28;20041;-81
2022/05/30 12:15:34;;;;;;;0.10;0.10;;;;;;;;;;5011340;28;20058;-82
2022/05/30 12:24:37;;;;;;;0.70;0.25;;;;;;;;;;4990942;28;20045;-85
2022/05/30 12:27:42;;;;;;;1.35;0.63;;;;;;;;;;5016062;28;20033;-85
2022/05/30 12:30:44;;;;;;;0.43;0.10;;;;;;;;;;5014649;28;20451;-85
2022/05/30 12:33:31;;;;;;;0.10;0.10;;;;;;;;;;5017617;28;20025;-85
2022/05/30 12:36:08;;;;;;;0.10;0.10;;;;;;;;;;5017378;28;20022;-84
2022/05/30 12:38:56;;;;;;;0.20;0.13;;;;;;;;;;5016457;28;20034;-81
2022/05/30 12:42:03;;;;;;;0.10;0.10;;;;;;;;;;5011018;28;20116;-84
2022/05/30 12:44:46;;;;;;;0.10;0.10;;;;;;;;;;5008459;28;20486;-84
2022/05/30 12:47:17;;;;;;;;;;;;;;;;;;5008729;28;20026;-84
2022/05/30 12:49:50;;;;;;;0.20;0.15;;;;;;;;;;5011652;28;20008;-84
2022/05/30 12:52:21;;;;;;;0.00;0.00;;;;;;;;;;5009909;28;20025;-82
2022/05/30 12:55:10;;;;;;;0.05;0.05;;;;;;;;;;5007544;28;20125;-83
2022/05/30 12:57:40;;;;;;;1.17;0.20;;;;;;;;;;5006236;28;20035;-83
2022/05/30 13:00:16;;;;;;;0.75;0.60;;;;;;;;;;5012636;28;20034;-84
2022/05/30 13:02:46;;;;;;;0.43;0.43;;;;;;;;;;5015772;28;20040;-82
2022/05/30 13:05:45;;;;;;;0.40;0.25;;;;;;;;;;5015655;28;20042;-82
2022/05/30 13:08:44;;;;;;;0.25;0.15;;;;;;;;;;5012963;28;20057;-82
2022/05/30 13:11:12;;;;;;;4.13;0.47;;;;;;;;;;5015440;28;20044;-84
2022/05/30 13:13:42;;;;;;;0.15;0.15;;;;;;;;;;5016564;28;20051;-84
2022/05/30 13:16:26;;;;;;;0.30;0.30;;;;;;;;;;5014316;28;20037;-84
2022/05/30 13:18:53;;;;;;;0.47;0.47;;;;;;;;;;5014277;28;20190;-84
2022/05/30 13:21:20;;;;;;;0.40;0.40;;;;;;;;;;4998074;28;20109;-83
2022/05/30 13:23:48;;;;;;;0.30;0.30;;;;;;;;;;5015052;28;20036;-81
2022/05/30 13:26:16;;;;;;;0.93;0.50;;;;;;;;;;5013366;28;20038;-83
2022/05/30 13:28:47;;;;;;;1.75;0.65;;;;;;;;;;5015653;28;20064;-84
2022/05/30 13:31:15;;;;;;;0.40;0.40;;;;;;;;;;5014729;28;20021;-83
2022/05/30 13:33:47;;;;;;;2.55;0.70;;;;;;;;;;5013590;28;20139;-82
2022/05/30 13:36:20;;;;;;;0.43;0.32;;;;;;;;;;4999376;28;20033;-83
2022/05/30 13:38:48;;;;;;;;;;;;;;;;;;5014477;28;20121;-84
2022/05/30 13:41:22;;;;;;;0.50;0.50;;;;;;;;;;5014103;28;20357;-84
2022/05/30 13:43:58;;;;;;;0.73;0.57;;;;;;;;;;5015623;28;20033;-83
2022/05/30 13:46:34;;;;;;;0.25;0.25;;;;;;;;;;5015396;28;20041;-82
2022/05/30 13:49:01;;;;;;;0.52;0.43;;;;;;;;;;5008590;28;20022;-83
2022/05/30 13:51:36;;;;;;;0.20;0.20;;;;;;;;;;5005208;28;20443;-82
2022/05/30 13:54:07;;;;;;;0.73;0.30;;;;;;;;;;5011449;28;20101;-83
2022/05/30 13:56:34;;;;;;;0.65;0.65;;;;;;;;;;5014730;28;20052;-83
2022/05/30 13:59:17;;;;;;;1.05;0.77;;;;;;;;;;5013728;28;20443;-83
2022/05/30 14:02:25;;;;;;;0.43;0.38;;;;;;;;;;5015527;28;20064;-82
2022/05/30 14:05:01;;;;;;;1.23;1.10;;;;;;;;;;4973405;28;20037;-83
2022/05/30 14:07:32;;;;;;;0.22;0.22;;;;;;;;;;4974123;28;20089;-83
2022/05/30 14:10:10;;;;;;;0.20;0.20;;;;;;;;;;4956663;28;20046;-82
2022/05/30 14:12:43;;;;;;;0.22;0.22;;;;;;;;;;4954029;29;20038;-81
2022/05/30 14:15:08;;;;;;;2.90;0.43;;;;;;;;;;4962959;28;20038;-82
2022/05/30 14:17:37;;;;;;;1.27;0.50;;;;;;;;;;4970096;28;20038;-82
2022/05/30 14:20:28;;;;;;;0.00;0.00;;;;;;;;;;4953679;28;20518;-83
2022/05/30 14:23:05;;;;;;;1.55;0.80;;;;;;;;;;4952084;28;20360;-81
2022/05/30 14:25:32;;;;;;;1.38;0.68;;;;;;;;;;4964318;28;20031;-82
2022/05/30 14:28:04;;;;;;;0.17;0.15;;;;;;;;;;4956169;28;20026;-81
2022/05/30 14:30:32;;;;;;;0.20;0.15;;;;;;;;;;4944157;28;20049;-83
2022/05/30 14:33:19;;;;;;;0.93;0.57;;;;;;;;;;4955757;28;20030;-81
2022/05/30 14:35:44;;;;;;;0.10;0.10;;;;;;;;;;4987485;28;20037;-82
2022/05/30 14:38:22;;;;;;;0.00;0.00;;;;;;;;;;4996671;28;20030;-82
2022/05/30 14:40:49;;;;;;;0.20;0.15;;;;;;;;;;5012919;28;20041;-83
2022/05/30 14:43:28;;;;;;;0.08;0.08;;;;;;;;;;5013585;28;20105;-82
2022/05/30 14:46:12;;;;;;;0.65;0.65;;;;;;;;;;4993628;28;20060;-85
2022/05/30 14:48:49;;;;;;;0.10;0.10;;;;;;;;;;5010812;28;20030;-84
2022/05/30 14:51:30;;;;;;;0.25;0.25;;;;;;;;;;4995298;28;20469;-81
2022/05/30 14:54:03;;;;;;;0.93;0.40;;;;;;;;;;5009422;28;20029;-80
2022/05/30 14:56:29;;;;;;;0.90;0.40;;;;;;;;;;4998457;28;20457;-80
2022/05/30 14:59:00;;;;;;;0.52;0.52;;;;;;;;;;5030338;28;20030;-80
2022/05/30 15:01:25;;;;;;;1.85;0.55;;;;;;;;;;4997264;28;20056;-79
2022/05/30 15:04:04;;;;;;;0.43;0.43;;;;;;;;;;5014834;28;20439;-78
2022/05/30 15:06:38;;;;;;;0.43;0.43;;;;;;;;;;4997683;28;20025;-81
2022/05/30 15:09:06;;;;;;;1.45;0.82;;;;;;;;;;5011425;28;20033;-81
2022/05/30 15:11:32;;;;;;;0.35;0.35;;;;;;;;;;5013314;28;20053;-82
2022/05/30 15:14:08;;;;;;;8.02;0.30;;;;;;;;;;4996749;28;20025;-81
2022/05/30 15:16:36;;;;;;;0.22;0.20;;;;;;;;;;5007448;28;20025;-82
2022/05/30 15:19:01;;;;;;;0.20;0.20;;;;;;;;;;4997893;28;20065;-82
2022/05/30 15:22:06;;;;;;;1.17;0.55;;;;;;;;;;4997506;28;20057;-81
2022/05/30 15:24:34;;;;;;;1.20;1.08;;;;;;;;;;5013556;28;20029;-81
2022/05/30 15:27:01;;;;;;;0.10;0.10;;;;;;;;;;4997456;28;20030;-82
2022/05/30 15:29:27;;;;;;;0.35;0.30;;;;;;;;;;5013896;28;20473;-78
2022/05/30 15:31:56;;;;;;;0.20;0.20;;;;;;;;;;4994658;28;20026;-80
2022/05/30 15:34:23;;;;;;;0.28;0.17;;;;;;;;;;5011461;28;20113;-82
2022/05/30 15:36:49;;;;;;;0.57;0.57;;;;;;;;;;5012999;28;20448;-81
2022/05/30 15:39:19;;;;;;;0.20;0.20;;;;;;;;;;5000693;28;20169;-82
2022/05/30 15:41:58;;;;;;;0.75;0.35;;;;;;;;;;5024517;28;20352;-83
2022/05/30 15:44:31;;;;;;;0.28;0.28;;;;;;;;;;4993367;28;20034;-82
2022/05/30 15:46:56;;;;;;;0.57;0.50;;;;;;;;;;5012102;28;20589;-83